Ana Sayfa
METAR-TAF:

METAR-TAF

Havaalanları :

Gatineau, Quebec, Kanada

Enlem: 45-31N, Boylam: 075-34W, yükseklik: 64 m

Güncel hava durumu gözlemi

Rapor saat 01:00 UTC de 3 saat ve 54 dakika önce yapıldı.
Sakin rüzgar
Sıcaklık 20°C
Nem 94%
Basınç 1013 hPa
Görüş mesafesi: 24.1 km
4000 ft yükseklikte az bulutlu, Yükselen kümülüs.
10000 ft yükseklikte az bulutlu
22000 ft yükseklikte az bulutlu

METAR: CYND 270100Z 00000KT 15SM FEW040TCU FEW100 FEW220 20/19 A2992 RMK TCU1AC1CI1 TCU TR TCU DIST SE LAST STFD OBS/NEXT 271100 UTC SLP135 DENSITY ALT 900FT

Saat: 00:54 (04:54 UTC)

Tahmin

Rapor saat 22:08 UTC de 6 saat ve 46 dakika önce yapıldı.
Ayın 26'si saat 22 UTC'den ayın 27'si saat 01 UTC'ye kadar geçerli Tahmin
Rüzgar değişken yönden 3 kt
Görüş mesafesi: 10 km
5000 ft yükseklikte parçalı bulutlu
10000 ft yükseklikte parçalı bulutlu
22000 ft yükseklikte parçalı çok bulutlu

TAF: CYND 262208Z 2622/2701 VRB03KT P6SM SCT050 SCT100 BKN220 RMK NXT FCST WILL BE ISSUED AT 271245Z

4.000'den fazla havaalanı için hava durumu gözlemleri ve tahminleri (METAR ve TAF raporları).

Kullanılabilir istasyonlar harita üzerinde sarı ve kırmızı noktalarla gösterilir.

İstasyonun adını görmek için fareyi noktanın üzerinde gezdirin.

Sonrasında hava gözlem ve tahminlerini görmek için tıklayın.

Haritayı değiştirmek için: yaklaştırmak için siyah artı işaretli yeşil düğmeye ve uzaklaştırmak için de eksi işaretli düğmeye hızla tıklayın; bitişik haritalar için yeşil okları kullanın.


METAR-TAF: